sensor_id;sensor_type;location;lat;lon;timestamp;temperature;humidity
71436;SHT31;59251;51.326;12.370;2022-07-22T00:00:14;22.03;66.38
71436;SHT31;59251;51.326;12.370;2022-07-22T00:02:40;21.80;67.17
71436;SHT31;59251;51.326;12.370;2022-07-22T00:05:06;21.66;67.76
71436;SHT31;59251;51.326;12.370;2022-07-22T00:07:31;21.65;67.88
71436;SHT31;59251;51.326;12.370;2022-07-22T00:09:57;21.79;67.51
71436;SHT31;59251;51.326;12.370;2022-07-22T00:12:22;21.65;67.94
71436;SHT31;59251;51.326;12.370;2022-07-22T00:14:48;21.67;68.04
71436;SHT31;59251;51.326;12.370;2022-07-22T00:17:13;21.66;68.23
71436;SHT31;59251;51.326;12.370;2022-07-22T00:19:39;21.70;68.06
71436;SHT31;59251;51.326;12.370;2022-07-22T00:22:04;21.69;68.15
71436;SHT31;59251;51.326;12.370;2022-07-22T00:24:29;21.75;68.04
71436;SHT31;59251;51.326;12.370;2022-07-22T00:26:55;21.63;68.36
71436;SHT31;59251;51.326;12.370;2022-07-22T00:29:20;21.69;68.02
71436;SHT31;59251;51.326;12.370;2022-07-22T00:31:46;21.73;68.28
71436;SHT31;59251;51.326;12.370;2022-07-22T00:34:11;21.75;68.02
71436;SHT31;59251;51.326;12.370;2022-07-22T00:36:38;21.80;67.99
71436;SHT31;59251;51.326;12.370;2022-07-22T00:39:03;21.72;68.21
71436;SHT31;59251;51.326;12.370;2022-07-22T00:41:29;21.65;68.75
71436;SHT31;59251;51.326;12.370;2022-07-22T00:43:58;21.72;68.45
71436;SHT31;59251;51.326;12.370;2022-07-22T00:46:24;21.72;68.46
71436;SHT31;59251;51.326;12.370;2022-07-22T00:48:49;21.59;68.88
71436;SHT31;59251;51.326;12.370;2022-07-22T00:51:17;21.59;68.75
71436;SHT31;59251;51.326;12.370;2022-07-22T00:53:43;21.49;69.26
71436;SHT31;59251;51.326;12.370;2022-07-22T00:56:09;21.37;69.46
71436;SHT31;59251;51.326;12.370;2022-07-22T00:58:34;21.43;69.43
71436;SHT31;59251;51.326;12.370;2022-07-22T01:01:00;21.45;69.31
71436;SHT31;59251;51.326;12.370;2022-07-22T01:03:25;21.35;69.73
71436;SHT31;59251;51.326;12.370;2022-07-22T01:05:51;21.34;69.75
71436;SHT31;59251;51.326;12.370;2022-07-22T01:08:16;21.12;70.64
71436;SHT31;59251;51.326;12.370;2022-07-22T01:10:42;21.14;70.49
71436;SHT31;59251;51.326;12.370;2022-07-22T01:13:08;21.11;70.79
71436;SHT31;59251;51.326;12.370;2022-07-22T01:15:33;21.28;70.35
71436;SHT31;59251;51.326;12.370;2022-07-22T01:18:00;21.03;71.20
71436;SHT31;59251;51.326;12.370;2022-07-22T01:20:26;21.08;71.05
71436;SHT31;59251;51.326;12.370;2022-07-22T01:22:51;21.12;71.17
71436;SHT31;59251;51.326;12.370;2022-07-22T01:25:17;21.08;71.23
71436;SHT31;59251;51.326;12.370;2022-07-22T01:27:42;21.08;71.37
71436;SHT31;59251;51.326;12.370;2022-07-22T01:30:08;20.98;71.71
71436;SHT31;59251;51.326;12.370;2022-07-22T01:32:34;21.04;71.57
71436;SHT31;59251;51.326;12.370;2022-07-22T01:34:59;21.05;71.67
71436;SHT31;59251;51.326;12.370;2022-07-22T01:37:25;20.76;72.81
71436;SHT31;59251;51.326;12.370;2022-07-22T01:39:50;20.84;72.52
71436;SHT31;59251;51.326;12.370;2022-07-22T01:42:16;20.76;72.72
71436;SHT31;59251;51.326;12.370;2022-07-22T01:44:41;20.91;72.50
71436;SHT31;59251;51.326;12.370;2022-07-22T01:47:07;20.91;72.53
71436;SHT31;59251;51.326;12.370;2022-07-22T01:49:33;20.94;72.31
71436;SHT31;59251;51.326;12.370;2022-07-22T01:52:00;20.91;72.26
71436;SHT31;59251;51.326;12.370;2022-07-22T01:54:25;20.79;72.97
71436;SHT31;59251;51.326;12.370;2022-07-22T01:56:51;20.76;73.09
71436;SHT31;59251;51.326;12.370;2022-07-22T01:59:16;20.75;73.19
71436;SHT31;59251;51.326;12.370;2022-07-22T02:01:42;20.75;73.44
71436;SHT31;59251;51.326;12.370;2022-07-22T02:04:07;20.73;73.36
71436;SHT31;59251;51.326;12.370;2022-07-22T02:06:33;20.57;73.95
71436;SHT31;59251;51.326;12.370;2022-07-22T02:08:58;20.52;74.08
71436;SHT31;59251;51.326;12.370;2022-07-22T02:11:24;20.62;73.77
71436;SHT31;59251;51.326;12.370;2022-07-22T02:13:49;20.66;73.52
71436;SHT31;59251;51.326;12.370;2022-07-22T02:16:15;20.60;73.78
71436;SHT31;59251;51.326;12.370;2022-07-22T02:18:40;20.52;74.08
71436;SHT31;59251;51.326;12.370;2022-07-22T02:21:06;20.56;74.07
71436;SHT31;59251;51.326;12.370;2022-07-22T02:23:31;20.33;74.77
71436;SHT31;59251;51.326;12.370;2022-07-22T02:25:56;20.40;74.60
71436;SHT31;59251;51.326;12.370;2022-07-22T02:28:22;20.35;74.81
71436;SHT31;59251;51.326;12.370;2022-07-22T02:30:47;20.11;75.72
71436;SHT31;59251;51.326;12.370;2022-07-22T02:33:13;20.05;75.88
71436;SHT31;59251;51.326;12.370;2022-07-22T02:35:39;20.09;75.66
71436;SHT31;59251;51.326;12.370;2022-07-22T02:38:05;20.19;75.35
71436;SHT31;59251;51.326;12.370;2022-07-22T02:40:30;20.14;75.48
71436;SHT31;59251;51.326;12.370;2022-07-22T02:42:55;20.09;75.76
71436;SHT31;59251;51.326;12.370;2022-07-22T02:45:21;20.08;75.95
71436;SHT31;59251;51.326;12.370;2022-07-22T02:47:52;19.95;76.49
71436;SHT31;59251;51.326;12.370;2022-07-22T02:50:18;19.99;76.18
71436;SHT31;59251;51.326;12.370;2022-07-22T02:52:43;19.82;76.64
71436;SHT31;59251;51.326;12.370;2022-07-22T02:55:09;19.81;76.94
71436;SHT31;59251;51.326;12.370;2022-07-22T02:57:34;19.92;76.48
71436;SHT31;59251;51.326;12.370;2022-07-22T03:00:00;19.91;76.27
71436;SHT31;59251;51.326;12.370;2022-07-22T03:02:26;19.82;76.42
71436;SHT31;59251;51.326;12.370;2022-07-22T03:04:51;19.78;76.35
71436;SHT31;59251;51.326;12.370;2022-07-22T03:07:16;19.63;76.76
71436;SHT31;59251;51.326;12.370;2022-07-22T03:09:42;19.70;76.44
71436;SHT31;59251;51.326;12.370;2022-07-22T03:12:08;19.69;76.64
71436;SHT31;59251;51.326;12.370;2022-07-22T03:14:34;19.56;76.98
71436;SHT31;59251;51.326;12.370;2022-07-22T03:16:59;19.50;77.29
71436;SHT31;59251;51.326;12.370;2022-07-22T03:19:24;19.56;77.19
71436;SHT31;59251;51.326;12.370;2022-07-22T03:21:50;19.60;76.94
71436;SHT31;59251;51.326;12.370;2022-07-22T03:24:15;19.70;76.60
71436;SHT31;59251;51.326;12.370;2022-07-22T03:26:41;19.47;77.28
71436;SHT31;59251;51.326;12.370;2022-07-22T03:29:07;19.59;76.83
71436;SHT31;59251;51.326;12.370;2022-07-22T03:31:32;19.54;77.02
71436;SHT31;59251;51.326;12.370;2022-07-22T03:33:58;19.46;77.25
71436;SHT31;59251;51.326;12.370;2022-07-22T03:36:26;19.43;77.59
71436;SHT31;59251;51.326;12.370;2022-07-22T03:38:51;19.39;77.53
71436;SHT31;59251;51.326;12.370;2022-07-22T03:41:17;19.42;77.52
71436;SHT31;59251;51.326;12.370;2022-07-22T03:43:42;19.43;77.30
71436;SHT31;59251;51.326;12.370;2022-07-22T03:46:08;19.36;77.45
71436;SHT31;59251;51.326;12.370;2022-07-22T03:48:33;19.47;77.18
71436;SHT31;59251;51.326;12.370;2022-07-22T03:50:58;19.64;76.42
71436;SHT31;59251;51.326;12.370;2022-07-22T03:53:24;19.64;76.57
71436;SHT31;59251;51.326;12.370;2022-07-22T03:55:49;19.80;75.77
71436;SHT31;59251;51.326;12.370;2022-07-22T03:58:16;19.74;75.95
71436;SHT31;59251;51.326;12.370;2022-07-22T04:00:42;19.81;75.75
71436;SHT31;59251;51.326;12.370;2022-07-22T04:03:08;19.91;75.36
71436;SHT31;59251;51.326;12.370;2022-07-22T04:05:33;19.90;75.34
71436;SHT31;59251;51.326;12.370;2022-07-22T04:07:58;19.92;75.14
71436;SHT31;59251;51.326;12.370;2022-07-22T04:10:24;20.04;74.96
71436;SHT31;59251;51.326;12.370;2022-07-22T04:12:49;20.05;75.01
71436;SHT31;59251;51.326;12.370;2022-07-22T04:15:15;20.08;74.98
71436;SHT31;59251;51.326;12.370;2022-07-22T04:17:40;20.18;74.67
71436;SHT31;59251;51.326;12.370;2022-07-22T04:20:07;20.09;74.94
71436;SHT31;59251;51.326;12.370;2022-07-22T04:22:32;20.17;74.73
71436;SHT31;59251;51.326;12.370;2022-07-22T04:24:58;20.04;75.09
71436;SHT31;59251;51.326;12.370;2022-07-22T04:27:23;20.09;74.92
71436;SHT31;59251;51.326;12.370;2022-07-22T04:29:49;20.14;74.35
71436;SHT31;59251;51.326;12.370;2022-07-22T04:32:14;20.18;74.44
71436;SHT31;59251;51.326;12.370;2022-07-22T04:34:40;20.11;74.40
71436;SHT31;59251;51.326;12.370;2022-07-22T04:37:06;20.19;74.15
71436;SHT31;59251;51.326;12.370;2022-07-22T04:39:32;20.25;74.00
71436;SHT31;59251;51.326;12.370;2022-07-22T04:41:57;20.22;74.07
71436;SHT31;59251;51.326;12.370;2022-07-22T04:44:23;20.07;74.36
71436;SHT31;59251;51.326;12.370;2022-07-22T04:46:48;20.17;74.48
71436;SHT31;59251;51.326;12.370;2022-07-22T04:49:14;20.12;74.33
71436;SHT31;59251;51.326;12.370;2022-07-22T04:51:39;19.95;74.88
71436;SHT31;59251;51.326;12.370;2022-07-22T04:54:05;20.07;74.52
71436;SHT31;59251;51.326;12.370;2022-07-22T04:56:30;20.02;74.73
71436;SHT31;59251;51.326;12.370;2022-07-22T04:58:55;20.07;74.72
71436;SHT31;59251;51.326;12.370;2022-07-22T05:01:21;19.95;74.82
71436;SHT31;59251;51.326;12.370;2022-07-22T05:03:46;20.26;74.01
71436;SHT31;59251;51.326;12.370;2022-07-22T05:06:12;20.21;74.23
71436;SHT31;59251;51.326;12.370;2022-07-22T05:08:38;20.39;73.63
71436;SHT31;59251;51.326;12.370;2022-07-22T05:11:03;20.30;73.54
71436;SHT31;59251;51.326;12.370;2022-07-22T05:13:29;20.57;73.04
71436;SHT31;59251;51.326;12.370;2022-07-22T05:15:54;20.57;73.08
71436;SHT31;59251;51.326;12.370;2022-07-22T05:18:19;20.76;72.59
71436;SHT31;59251;51.326;12.370;2022-07-22T05:20:45;20.88;72.06
71436;SHT31;59251;51.326;12.370;2022-07-22T05:23:10;20.93;72.03
71436;SHT31;59251;51.326;12.370;2022-07-22T05:25:36;21.17;71.25
71436;SHT31;59251;51.326;12.370;2022-07-22T05:28:02;20.98;71.44
71436;SHT31;59251;51.326;12.370;2022-07-22T05:30:27;21.17;71.13
71436;SHT31;59251;51.326;12.370;2022-07-22T05:32:53;21.22;71.04
71436;SHT31;59251;51.326;12.370;2022-07-22T05:35:19;21.31;70.88
71436;SHT31;59251;51.326;12.370;2022-07-22T05:37:45;21.56;69.58
71436;SHT31;59251;51.326;12.370;2022-07-22T05:40:11;22.14;68.19
71436;SHT31;59251;51.326;12.370;2022-07-22T05:42:37;22.88;65.41
71436;SHT31;59251;51.326;12.370;2022-07-22T05:45:02;23.19;64.69
71436;SHT31;59251;51.326;12.370;2022-07-22T05:47:28;22.57;66.58
71436;SHT31;59251;51.326;12.370;2022-07-22T05:49:53;22.68;66.13
71436;SHT31;59251;51.326;12.370;2022-07-22T05:52:19;22.48;66.81
71436;SHT31;59251;51.326;12.370;2022-07-22T05:54:44;22.20;67.70
71436;SHT31;59251;51.326;12.370;2022-07-22T05:57:10;22.09;67.78
71436;SHT31;59251;51.326;12.370;2022-07-22T05:59:36;21.89;68.24
71436;SHT31;59251;51.326;12.370;2022-07-22T06:02:02;21.78;68.81
71436;SHT31;59251;51.326;12.370;2022-07-22T06:04:27;21.83;68.89
71436;SHT31;59251;51.326;12.370;2022-07-22T06:06:53;21.90;68.72
71436;SHT31;59251;51.326;12.370;2022-07-22T06:09:19;21.65;69.40
71436;SHT31;59251;51.326;12.370;2022-07-22T06:11:44;21.85;69.16
71436;SHT31;59251;51.326;12.370;2022-07-22T06:14:10;22.00;68.39
71436;SHT31;59251;51.326;12.370;2022-07-22T06:16:35;21.61;69.28
71436;SHT31;59251;51.326;12.370;2022-07-22T06:19:02;22.11;68.29
71436;SHT31;59251;51.326;12.370;2022-07-22T06:21:27;22.27;67.71
71436;SHT31;59251;51.326;12.370;2022-07-22T06:23:53;22.71;66.41
71436;SHT31;59251;51.326;12.370;2022-07-22T06:26:18;22.72;66.17
71436;SHT31;59251;51.326;12.370;2022-07-22T06:28:44;22.58;66.44
71436;SHT31;59251;51.326;12.370;2022-07-22T06:31:09;22.68;66.45
71436;SHT31;59251;51.326;12.370;2022-07-22T06:33:35;22.37;67.37
71436;SHT31;59251;51.326;12.370;2022-07-22T06:36:01;22.75;66.30
71436;SHT31;59251;51.326;12.370;2022-07-22T06:38:26;22.40;67.39
71436;SHT31;59251;51.326;12.370;2022-07-22T06:40:52;22.49;67.34
71436;SHT31;59251;51.326;12.370;2022-07-22T06:43:17;22.58;67.28
71436;SHT31;59251;51.326;12.370;2022-07-22T06:45:43;22.85;66.06
71436;SHT31;59251;51.326;12.370;2022-07-22T06:48:08;22.51;66.96
71436;SHT31;59251;51.326;12.370;2022-07-22T06:50:33;22.59;66.60
71436;SHT31;59251;51.326;12.370;2022-07-22T06:52:59;22.61;66.41
71436;SHT31;59251;51.326;12.370;2022-07-22T06:55:24;22.41;66.57
71436;SHT31;59251;51.326;12.370;2022-07-22T06:57:50;22.88;66.35
71436;SHT31;59251;51.326;12.370;2022-07-22T07:00:15;22.49;67.31
71436;SHT31;59251;51.326;12.370;2022-07-22T07:02:41;22.51;67.15
71436;SHT31;59251;51.326;12.370;2022-07-22T07:05:07;22.71;66.38
71436;SHT31;59251;51.326;12.370;2022-07-22T07:07:32;22.85;66.03
71436;SHT31;59251;51.326;12.370;2022-07-22T07:09:58;23.17;65.15
71436;SHT31;59251;51.326;12.370;2022-07-22T07:12:24;23.34;64.64
71436;SHT31;59251;51.326;12.370;2022-07-22T07:14:49;23.43;64.05
71436;SHT31;59251;51.326;12.370;2022-07-22T07:17:14;23.55;63.64
71436;SHT31;59251;51.326;12.370;2022-07-22T07:19:41;23.79;62.53
71436;SHT31;59251;51.326;12.370;2022-07-22T07:22:06;23.22;63.31
71436;SHT31;59251;51.326;12.370;2022-07-22T07:24:32;23.67;62.66
71436;SHT31;59251;51.326;12.370;2022-07-22T07:26:57;23.36;63.43
71436;SHT31;59251;51.326;12.370;2022-07-22T07:29:23;23.55;62.93
71436;SHT31;59251;51.326;12.370;2022-07-22T07:31:48;23.46;63.20
71436;SHT31;59251;51.326;12.370;2022-07-22T07:34:14;23.91;62.10
71436;SHT31;59251;51.326;12.370;2022-07-22T07:36:40;23.81;62.21
71436;SHT31;59251;51.326;12.370;2022-07-22T07:39:07;23.24;63.13
71436;SHT31;59251;51.326;12.370;2022-07-22T07:41:33;23.68;62.53
71436;SHT31;59251;51.326;12.370;2022-07-22T07:43:58;23.92;62.08
71436;SHT31;59251;51.326;12.370;2022-07-22T07:46:24;24.12;61.08
71436;SHT31;59251;51.326;12.370;2022-07-22T07:48:49;24.30;60.65
71436;SHT31;59251;51.326;12.370;2022-07-22T07:51:14;24.33;60.64
71436;SHT31;59251;51.326;12.370;2022-07-22T07:53:40;23.77;62.21
71436;SHT31;59251;51.326;12.370;2022-07-22T07:56:06;24.47;60.43
71436;SHT31;59251;51.326;12.370;2022-07-22T07:58:31;23.99;62.04
71436;SHT31;59251;51.326;12.370;2022-07-22T08:00:57;23.98;61.61
71436;SHT31;59251;51.326;12.370;2022-07-22T08:03:22;23.86;61.36
71436;SHT31;59251;51.326;12.370;2022-07-22T08:05:48;23.89;60.96
71436;SHT31;59251;51.326;12.370;2022-07-22T08:08:13;23.82;61.40
71436;SHT31;59251;51.326;12.370;2022-07-22T08:10:39;23.50;61.94
71436;SHT31;59251;51.326;12.370;2022-07-22T08:13:05;23.81;61.62
71436;SHT31;59251;51.326;12.370;2022-07-22T08:15:30;24.19;60.52
71436;SHT31;59251;51.326;12.370;2022-07-22T08:17:57;24.25;60.70
71436;SHT31;59251;51.326;12.370;2022-07-22T08:20:24;23.74;60.67
71436;SHT31;59251;51.326;12.370;2022-07-22T08:22:50;24.19;60.37
71436;SHT31;59251;51.326;12.370;2022-07-22T08:25:15;25.05;58.09
71436;SHT31;59251;51.326;12.370;2022-07-22T08:27:41;24.98;57.64
71436;SHT31;59251;51.326;12.370;2022-07-22T08:30:07;25.65;56.37
71436;SHT31;59251;51.326;12.370;2022-07-22T08:32:33;25.28;57.09
71436;SHT31;59251;51.326;12.370;2022-07-22T08:34:59;25.21;56.32
71436;SHT31;59251;51.326;12.370;2022-07-22T08:37:25;25.05;56.50
71436;SHT31;59251;51.326;12.370;2022-07-22T08:39:50;25.65;54.81
71436;SHT31;59251;51.326;12.370;2022-07-22T08:42:16;25.04;55.79
71436;SHT31;59251;51.326;12.370;2022-07-22T08:44:41;25.22;55.87
71436;SHT31;59251;51.326;12.370;2022-07-22T08:47:07;25.73;54.95
71436;SHT31;59251;51.326;12.370;2022-07-22T08:49:32;25.46;56.24
71436;SHT31;59251;51.326;12.370;2022-07-22T08:51:58;25.16;56.18
71436;SHT31;59251;51.326;12.370;2022-07-22T08:54:24;24.88;56.36
71436;SHT31;59251;51.326;12.370;2022-07-22T08:56:50;25.52;54.11
71436;SHT31;59251;51.326;12.370;2022-07-22T08:59:16;26.07;53.69
71436;SHT31;59251;51.326;12.370;2022-07-22T09:02:04;26.01;53.74
71436;SHT31;59251;51.326;12.370;2022-07-22T09:04:31;26.95;51.32
71436;SHT31;59251;51.326;12.370;2022-07-22T09:06:57;26.34;52.48
71436;SHT31;59251;51.326;12.370;2022-07-22T09:09:31;26.18;52.24
71436;SHT31;59251;51.326;12.370;2022-07-22T09:12:07;26.34;52.80
71436;SHT31;59251;51.326;12.370;2022-07-22T09:14:46;26.55;52.39
71436;SHT31;59251;51.326;12.370;2022-07-22T09:17:32;26.53;52.54
71436;SHT31;59251;51.326;12.370;2022-07-22T09:20:02;26.92;51.72
71436;SHT31;59251;51.326;12.370;2022-07-22T09:22:36;25.83;53.86
71436;SHT31;59251;51.326;12.370;2022-07-22T09:25:27;25.74;54.41
71436;SHT31;59251;51.326;12.370;2022-07-22T09:30:37;26.51;52.89
71436;SHT31;59251;51.326;12.370;2022-07-22T09:33:04;26.11;53.47
71436;SHT31;59251;51.326;12.370;2022-07-22T09:35:30;26.35;53.82
71436;SHT31;59251;51.326;12.370;2022-07-22T09:37:58;26.10;53.81
71436;SHT31;59251;51.326;12.370;2022-07-22T09:40:30;26.47;53.07
71436;SHT31;59251;51.326;12.370;2022-07-22T09:43:01;26.32;52.86
71436;SHT31;59251;51.326;12.370;2022-07-22T09:45:29;26.04;54.07
71436;SHT31;59251;51.326;12.370;2022-07-22T09:47:56;25.96;54.19
71436;SHT31;59251;51.326;12.370;2022-07-22T09:50:24;25.86;54.09
71436;SHT31;59251;51.326;12.370;2022-07-22T09:52:52;26.08;53.96
71436;SHT31;59251;51.326;12.370;2022-07-22T09:55:19;26.52;53.22
71436;SHT31;59251;51.326;12.370;2022-07-22T09:57:45;26.53;52.63
71436;SHT31;59251;51.326;12.370;2022-07-22T10:00:13;26.87;52.67
71436;SHT31;59251;51.326;12.370;2022-07-22T10:02:44;26.32;53.99
71436;SHT31;59251;51.326;12.370;2022-07-22T10:05:11;26.17;54.36
71436;SHT31;59251;51.326;12.370;2022-07-22T10:07:37;26.35;52.99
71436;SHT31;59251;51.326;12.370;2022-07-22T10:10:04;27.02;51.47
71436;SHT31;59251;51.326;12.370;2022-07-22T10:12:30;26.78;52.08
71436;SHT31;59251;51.326;12.370;2022-07-22T10:14:56;26.56;52.57
71436;SHT31;59251;51.326;12.370;2022-07-22T10:17:21;27.04;51.51
71436;SHT31;59251;51.326;12.370;2022-07-22T10:19:47;26.83;51.97
71436;SHT31;59251;51.326;12.370;2022-07-22T10:25:15;27.13;51.14
71436;SHT31;59251;51.326;12.370;2022-07-22T10:27:45;26.83;51.63
71436;SHT31;59251;51.326;12.370;2022-07-22T10:30:12;27.24;50.98
71436;SHT31;59251;51.326;12.370;2022-07-22T10:32:38;26.78;52.68
71436;SHT31;59251;51.326;12.370;2022-07-22T10:45:25;25.41;58.20
71436;SHT31;59251;51.326;12.370;2022-07-22T10:47:56;26.47;56.39
71436;SHT31;59251;51.326;12.370;2022-07-22T10:53:54;25.94;56.65
71436;SHT31;59251;51.326;12.370;2022-07-22T10:56:27;25.84;56.86
71436;SHT31;59251;51.326;12.370;2022-07-22T10:59:14;25.22;58.70
71436;SHT31;59251;51.326;12.370;2022-07-22T11:01:44;25.66;57.53
71436;SHT31;59251;51.326;12.370;2022-07-22T11:04:22;25.80;57.70
71436;SHT31;59251;51.326;12.370;2022-07-22T11:06:55;25.83;58.59
71436;SHT31;59251;51.326;12.370;2022-07-22T11:09:29;25.93;57.88
71436;SHT31;59251;51.326;12.370;2022-07-22T11:11:55;26.18;57.05
71436;SHT31;59251;51.326;12.370;2022-07-22T11:14:27;25.80;57.78
71436;SHT31;59251;51.326;12.370;2022-07-22T11:19:25;26.99;54.76
71436;SHT31;59251;51.326;12.370;2022-07-22T11:21:56;26.85;54.26
71436;SHT31;59251;51.326;12.370;2022-07-22T11:24:23;26.18;56.01
71436;SHT31;59251;51.326;12.370;2022-07-22T11:26:53;26.55;54.59
71436;SHT31;59251;51.326;12.370;2022-07-22T11:31:51;27.40;53.63
71436;SHT31;59251;51.326;12.370;2022-07-22T11:34:16;27.11;53.43
71436;SHT31;59251;51.326;12.370;2022-07-22T11:36:44;27.95;52.01
71436;SHT31;59251;51.326;12.370;2022-07-22T11:39:12;27.43;53.40
71436;SHT31;59251;51.326;12.370;2022-07-22T11:41:38;27.99;51.35
71436;SHT31;59251;51.326;12.370;2022-07-22T11:44:04;29.04;49.16
71436;SHT31;59251;51.326;12.370;2022-07-22T11:46:38;28.61;49.90
71436;SHT31;59251;51.326;12.370;2022-07-22T11:49:04;29.12;47.97
71436;SHT31;59251;51.326;12.370;2022-07-22T11:51:31;28.03;50.08
71436;SHT31;59251;51.326;12.370;2022-07-22T11:53:57;28.06;50.16
71436;SHT31;59251;51.326;12.370;2022-07-22T11:56:23;29.15;47.88
71436;SHT31;59251;51.326;12.370;2022-07-22T11:58:50;29.59;47.16
71436;SHT31;59251;51.326;12.370;2022-07-22T12:01:20;30.87;45.29
71436;SHT31;59251;51.326;12.370;2022-07-22T12:04:01;27.68;50.30
71436;SHT31;59251;51.326;12.370;2022-07-22T12:06:27;28.84;49.08
71436;SHT31;59251;51.326;12.370;2022-07-22T12:08:56;27.55;51.38
71436;SHT31;59251;51.326;12.370;2022-07-22T12:11:24;27.77;51.18
71436;SHT31;59251;51.326;12.370;2022-07-22T12:13:51;27.61;51.42
71436;SHT31;59251;51.326;12.370;2022-07-22T12:16:27;28.23;50.05
71436;SHT31;59251;51.326;12.370;2022-07-22T12:19:01;30.32;45.60
71436;SHT31;59251;51.326;12.370;2022-07-22T12:21:34;30.67;45.58
71436;SHT31;59251;51.326;12.370;2022-07-22T12:24:07;29.96;46.28
71436;SHT31;59251;51.326;12.370;2022-07-22T12:26:46;29.96;46.44
71436;SHT31;59251;51.326;12.370;2022-07-22T12:31:54;29.23;46.66
71436;SHT31;59251;51.326;12.370;2022-07-22T12:37:11;27.85;50.61
71436;SHT31;59251;51.326;12.370;2022-07-22T12:39:36;26.24;54.06
71436;SHT31;59251;51.326;12.370;2022-07-22T12:42:02;26.69;53.75
71436;SHT31;59251;51.326;12.370;2022-07-22T12:44:27;28.39;51.13
71436;SHT31;59251;51.326;12.370;2022-07-22T12:46:54;27.65;51.52
71436;SHT31;59251;51.326;12.370;2022-07-22T12:49:23;29.27;48.28
71436;SHT31;59251;51.326;12.370;2022-07-22T12:52:13;28.32;49.75
71436;SHT31;59251;51.326;12.370;2022-07-22T12:54:40;30.58;45.50
71436;SHT31;59251;51.326;12.370;2022-07-22T12:57:08;31.18;44.32
71436;SHT31;59251;51.326;12.370;2022-07-22T12:59:35;32.09;41.97
71436;SHT31;59251;51.326;12.370;2022-07-22T13:02:02;31.75;41.96
71436;SHT31;59251;51.326;12.370;2022-07-22T13:04:27;29.63;45.64
71436;SHT31;59251;51.326;12.370;2022-07-22T13:06:53;29.69;45.22
71436;SHT31;59251;51.326;12.370;2022-07-22T13:09:18;28.85;47.22
71436;SHT31;59251;51.326;12.370;2022-07-22T13:11:44;29.27;47.75
71436;SHT31;59251;51.326;12.370;2022-07-22T13:14:12;31.00;43.46
71436;SHT31;59251;51.326;12.370;2022-07-22T13:16:37;29.83;45.66
71436;SHT31;59251;51.326;12.370;2022-07-22T13:19:03;30.05;44.54
71436;SHT31;59251;51.326;12.370;2022-07-22T13:21:29;30.35;44.18
71436;SHT31;59251;51.326;12.370;2022-07-22T13:23:54;29.36;46.03
71436;SHT31;59251;51.326;12.370;2022-07-22T13:26:20;27.33;50.52
71436;SHT31;59251;51.326;12.370;2022-07-22T13:28:46;28.64;47.86
71436;SHT31;59251;51.326;12.370;2022-07-22T13:31:12;31.54;43.12
71436;SHT31;59251;51.326;12.370;2022-07-22T13:33:37;32.71;40.67
71436;SHT31;59251;51.326;12.370;2022-07-22T13:36:03;32.40;40.85
71436;SHT31;59251;51.326;12.370;2022-07-22T13:38:30;33.57;39.08
71436;SHT31;59251;51.326;12.370;2022-07-22T13:40:55;33.56;38.67
71436;SHT31;59251;51.326;12.370;2022-07-22T13:43:22;30.46;44.13
71436;SHT31;59251;51.326;12.370;2022-07-22T13:45:51;32.00;41.58
71436;SHT31;59251;51.326;12.370;2022-07-22T13:48:17;31.42;42.87
71436;SHT31;59251;51.326;12.370;2022-07-22T13:50:44;31.33;42.98
71436;SHT31;59251;51.326;12.370;2022-07-22T13:53:09;31.68;41.70
71436;SHT31;59251;51.326;12.370;2022-07-22T13:55:38;32.43;40.98
71436;SHT31;59251;51.326;12.370;2022-07-22T13:58:03;32.61;40.70
71436;SHT31;59251;51.326;12.370;2022-07-22T14:00:29;32.09;41.23
71436;SHT31;59251;51.326;12.370;2022-07-22T14:02:54;33.41;38.68
71436;SHT31;59251;51.326;12.370;2022-07-22T14:05:19;31.48;42.46
71436;SHT31;59251;51.326;12.370;2022-07-22T14:07:45;31.68;41.47
71436;SHT31;59251;51.326;12.370;2022-07-22T14:10:11;31.30;42.13
71436;SHT31;59251;51.326;12.370;2022-07-22T14:12:36;31.42;42.63
71436;SHT31;59251;51.326;12.370;2022-07-22T14:15:03;30.33;44.15
71436;SHT31;59251;51.326;12.370;2022-07-22T14:17:28;29.60;45.87
71436;SHT31;59251;51.326;12.370;2022-07-22T14:19:53;29.69;46.13
71436;SHT31;59251;51.326;12.370;2022-07-22T14:22:20;28.79;47.10
71436;SHT31;59251;51.326;12.370;2022-07-22T14:24:45;28.12;48.60
71436;SHT31;59251;51.326;12.370;2022-07-22T14:27:10;27.40;50.25
71436;SHT31;59251;51.326;12.370;2022-07-22T14:29:36;28.37;48.02
71436;SHT31;59251;51.326;12.370;2022-07-22T14:32:01;30.10;44.35
71436;SHT31;59251;51.326;12.370;2022-07-22T14:34:27;30.59;43.62
71436;SHT31;59251;51.326;12.370;2022-07-22T14:36:52;30.33;43.65
71436;SHT31;59251;51.326;12.370;2022-07-22T14:39:18;29.46;45.82
71436;SHT31;59251;51.326;12.370;2022-07-22T14:41:43;30.36;44.46
71436;SHT31;59251;51.326;12.370;2022-07-22T14:44:11;29.01;46.46
71436;SHT31;59251;51.326;12.370;2022-07-22T14:46:36;29.23;45.73
71436;SHT31;59251;51.326;12.370;2022-07-22T14:49:02;29.50;45.74
71436;SHT31;59251;51.326;12.370;2022-07-22T14:51:28;29.04;46.73
71436;SHT31;59251;51.326;12.370;2022-07-22T14:53:53;28.44;47.76
71436;SHT31;59251;51.326;12.370;2022-07-22T14:56:19;28.51;48.33
71436;SHT31;59251;51.326;12.370;2022-07-22T14:58:44;28.17;48.95
71436;SHT31;59251;51.326;12.370;2022-07-22T15:01:10;28.08;48.84
71436;SHT31;59251;51.326;12.370;2022-07-22T15:03:35;28.39;47.83
71436;SHT31;59251;51.326;12.370;2022-07-22T15:06:00;28.41;47.85
71436;SHT31;59251;51.326;12.370;2022-07-22T15:08:26;28.36;48.04
71436;SHT31;59251;51.326;12.370;2022-07-22T15:10:51;29.04;46.88
71436;SHT31;59251;51.326;12.370;2022-07-22T15:13:17;30.38;43.47
71436;SHT31;59251;51.326;12.370;2022-07-22T15:15:42;32.58;40.07
71436;SHT31;59251;51.326;12.370;2022-07-22T15:18:08;33.15;38.48
71436;SHT31;59251;51.326;12.370;2022-07-22T15:20:34;31.79;40.89
71436;SHT31;59251;51.326;12.370;2022-07-22T15:23:00;31.20;42.36
71436;SHT31;59251;51.326;12.370;2022-07-22T15:25:26;31.89;41.54
71436;SHT31;59251;51.326;12.370;2022-07-22T15:27:52;32.19;40.48
71436;SHT31;59251;51.326;12.370;2022-07-22T15:30:18;30.77;42.30
71436;SHT31;59251;51.326;12.370;2022-07-22T15:32:45;30.42;43.11
71436;SHT31;59251;51.326;12.370;2022-07-22T15:35:10;31.08;42.17
71436;SHT31;59251;51.326;12.370;2022-07-22T15:37:36;31.65;41.57
71436;SHT31;59251;51.326;12.370;2022-07-22T15:40:04;33.81;37.39